sensor_id;sensor_type;location;lat;lon;timestamp;pressure;altitude;pressure_sealevel;temperature;humidity
59194;BME280;44967;48.598;15.650;2022-07-17T00:00:44;99003.75;;;20.32;44.13
59194;BME280;44967;48.598;15.650;2022-07-17T00:03:11;98991.56;;;20.19;44.02
59194;BME280;44967;48.598;15.650;2022-07-17T00:05:37;98987.59;;;20.16;44.48
59194;BME280;44967;48.598;15.650;2022-07-17T00:08:05;98987.69;;;20.02;44.81
59194;BME280;44967;48.598;15.650;2022-07-17T00:10:39;98994.34;;;20.11;44.16
59194;BME280;44967;48.598;15.650;2022-07-17T00:13:05;98991.28;;;19.98;44.44
59194;BME280;44967;48.598;15.650;2022-07-17T00:15:31;99004.34;;;19.87;44.71
59194;BME280;44967;48.598;15.650;2022-07-17T00:17:57;99000.78;;;19.90;44.52
59194;BME280;44967;48.598;15.650;2022-07-17T00:20:23;98994.44;;;19.90;44.22
59194;BME280;44967;48.598;15.650;2022-07-17T00:22:52;99009.16;;;19.72;44.94
59194;BME280;44967;48.598;15.650;2022-07-17T00:25:18;99006.41;;;19.72;44.68
59194;BME280;44967;48.598;15.650;2022-07-17T00:27:43;99011.16;;;19.64;45.02
59194;BME280;44967;48.598;15.650;2022-07-17T00:30:09;99013.56;;;19.55;45.86
59194;BME280;44967;48.598;15.650;2022-07-17T00:32:35;99015.56;;;19.54;45.57
59194;BME280;44967;48.598;15.650;2022-07-17T00:35:01;99013.22;;;19.38;45.51
59194;BME280;44967;48.598;15.650;2022-07-17T00:37:26;99019.53;;;19.50;45.74
59194;BME280;44967;48.598;15.650;2022-07-17T00:39:52;99017.13;;;19.66;44.98
59194;BME280;44967;48.598;15.650;2022-07-17T00:42:18;99023.47;;;19.52;45.52
59194;BME280;44967;48.598;15.650;2022-07-17T00:44:44;99019.47;;;19.64;45.10
59194;BME280;44967;48.598;15.650;2022-07-17T00:47:19;99019.91;;;19.55;45.43
59194;BME280;44967;48.598;15.650;2022-07-17T00:49:47;99023.88;;;19.51;45.40
59194;BME280;44967;48.598;15.650;2022-07-17T00:52:13;99019.94;;;19.41;44.95
59194;BME280;44967;48.598;15.650;2022-07-17T00:54:41;99023.16;;;19.21;46.00
59194;BME280;44967;48.598;15.650;2022-07-17T00:57:10;99021.19;;;19.14;46.12
59194;BME280;44967;48.598;15.650;2022-07-17T00:59:36;99020.38;;;19.14;46.49
59194;BME280;44967;48.598;15.650;2022-07-17T01:02:04;99023.16;;;19.07;46.46
59194;BME280;44967;48.598;15.650;2022-07-17T01:04:31;99028.69;;;19.07;46.80
59194;BME280;44967;48.598;15.650;2022-07-17T01:06:57;99035.00;;;19.00;46.67
59194;BME280;44967;48.598;15.650;2022-07-17T01:09:24;99026.72;;;18.96;46.24
59194;BME280;44967;48.598;15.650;2022-07-17T01:11:50;99033.84;;;19.08;45.82
59194;BME280;44967;48.598;15.650;2022-07-17T01:14:16;99036.59;;;18.94;46.56
59194;BME280;44967;48.598;15.650;2022-07-17T01:16:43;99033.81;;;18.79;47.05
59194;BME280;44967;48.598;15.650;2022-07-17T01:19:10;99037.75;;;18.67;47.36
59194;BME280;44967;48.598;15.650;2022-07-17T01:21:41;99027.50;;;18.78;46.91
59194;BME280;44967;48.598;15.650;2022-07-17T01:24:07;99028.69;;;18.77;47.27
59194;BME280;44967;48.598;15.650;2022-07-17T01:26:33;99025.53;;;18.57;47.20
59194;BME280;44967;48.598;15.650;2022-07-17T01:28:58;99035.78;;;18.53;47.31
59194;BME280;44967;48.598;15.650;2022-07-17T01:31:24;99042.84;;;18.36;48.00
59194;BME280;44967;48.598;15.650;2022-07-17T01:33:50;99048.00;;;18.41;47.35
59194;BME280;44967;48.598;15.650;2022-07-17T01:36:15;99047.22;;;18.37;47.85
59194;BME280;44967;48.598;15.650;2022-07-17T01:38:41;99046.78;;;18.31;47.69
59194;BME280;44967;48.598;15.650;2022-07-17T01:41:06;99053.91;;;18.21;48.16
59194;BME280;44967;48.598;15.650;2022-07-17T01:43:32;99054.28;;;18.27;47.94
59194;BME280;44967;48.598;15.650;2022-07-17T01:45:57;99053.91;;;18.21;48.31
59194;BME280;44967;48.598;15.650;2022-07-17T01:48:25;99047.56;;;18.17;48.53
59194;BME280;44967;48.598;15.650;2022-07-17T01:50:51;99057.78;;;18.06;48.69
59194;BME280;44967;48.598;15.650;2022-07-17T01:53:16;99055.44;;;18.12;48.02
59194;BME280;44967;48.598;15.650;2022-07-17T01:55:42;99052.16;;;17.91;48.86
59194;BME280;44967;48.598;15.650;2022-07-17T01:58:08;99061.63;;;17.87;49.15
59194;BME280;44967;48.598;15.650;2022-07-17T02:00:33;99058.47;;;17.92;49.12
59194;BME280;44967;48.598;15.650;2022-07-17T02:02:59;99060.47;;;17.91;48.78
59194;BME280;44967;48.598;15.650;2022-07-17T02:05:25;99061.28;;;17.99;48.79
59194;BME280;44967;48.598;15.650;2022-07-17T02:07:50;99055.69;;;17.88;49.10
59194;BME280;44967;48.598;15.650;2022-07-17T02:10:16;99054.50;;;17.82;49.09
59194;BME280;44967;48.598;15.650;2022-07-17T02:12:44;99065.06;;;17.65;49.89
59194;BME280;44967;48.598;15.650;2022-07-17T02:15:10;99056.28;;;17.49;50.06
59194;BME280;44967;48.598;15.650;2022-07-17T02:17:37;99060.66;;;17.53;49.71
59194;BME280;44967;48.598;15.650;2022-07-17T02:20:03;99059.50;;;17.58;50.00
59194;BME280;44967;48.598;15.650;2022-07-17T02:22:29;99062.69;;;17.64;49.52
59194;BME280;44967;48.598;15.650;2022-07-17T02:24:55;99061.88;;;17.60;49.43
59194;BME280;44967;48.598;15.650;2022-07-17T02:27:20;99057.16;;;17.64;49.02
59194;BME280;44967;48.598;15.650;2022-07-17T02:29:46;99065.41;;;17.53;49.37
59194;BME280;44967;48.598;15.650;2022-07-17T02:32:11;99063.38;;;17.50;49.51
59194;BME280;44967;48.598;15.650;2022-07-17T02:34:37;99061.72;;;17.34;49.96
59194;BME280;44967;48.598;15.650;2022-07-17T02:37:03;99070.03;;;17.38;50.08
59194;BME280;44967;48.598;15.650;2022-07-17T02:39:28;99059.41;;;17.40;50.03
59194;BME280;44967;48.598;15.650;2022-07-17T02:41:54;99060.59;;;17.39;49.18
59194;BME280;44967;48.598;15.650;2022-07-17T02:44:19;99067.59;;;17.25;50.15
59194;BME280;44967;48.598;15.650;2022-07-17T02:46:45;99066.03;;;17.28;49.50
59194;BME280;44967;48.598;15.650;2022-07-17T02:49:10;99069.09;;;17.19;50.49
59194;BME280;44967;48.598;15.650;2022-07-17T02:51:36;99065.94;;;17.17;49.66
59194;BME280;44967;48.598;15.650;2022-07-17T02:54:02;99066.63;;;17.07;50.25
59194;BME280;44967;48.598;15.650;2022-07-17T02:56:27;99071.41;;;17.10;49.94
59194;BME280;44967;48.598;15.650;2022-07-17T02:58:53;99068.50;;;16.95;50.37
59194;BME280;44967;48.598;15.650;2022-07-17T03:01:18;99064.56;;;16.96;50.57
59194;BME280;44967;48.598;15.650;2022-07-17T03:03:44;99063.31;;;16.90;50.93
59194;BME280;44967;48.598;15.650;2022-07-17T03:06:09;99064.94;;;16.95;50.52
59194;BME280;44967;48.598;15.650;2022-07-17T03:08:35;99060.25;;;16.99;50.27
59194;BME280;44967;48.598;15.650;2022-07-17T03:11:00;99066.25;;;17.08;49.71
59194;BME280;44967;48.598;15.650;2022-07-17T03:13:26;99067.44;;;17.07;50.11
59194;BME280;44967;48.598;15.650;2022-07-17T03:15:51;99068.72;;;17.17;49.42
59194;BME280;44967;48.598;15.650;2022-07-17T03:18:17;99074.59;;;17.16;49.37
59194;BME280;44967;48.598;15.650;2022-07-17T03:20:43;99077.56;;;16.92;50.32
59194;BME280;44967;48.598;15.650;2022-07-17T03:23:08;99076.75;;;16.92;49.79
59194;BME280;44967;48.598;15.650;2022-07-17T03:25:34;99079.50;;;16.92;50.35
59194;BME280;44967;48.598;15.650;2022-07-17T03:27:59;99082.38;;;17.03;49.77
59194;BME280;44967;48.598;15.650;2022-07-17T03:30:25;99075.69;;;17.04;49.46
59194;BME280;44967;48.598;15.650;2022-07-17T03:32:51;99074.28;;;16.83;50.03
59194;BME280;44967;48.598;15.650;2022-07-17T03:35:17;99079.00;;;16.79;49.96
59194;BME280;44967;48.598;15.650;2022-07-17T03:37:42;99076.75;;;16.92;50.34
59194;BME280;44967;48.598;15.650;2022-07-17T03:40:10;99081.47;;;16.91;50.06
59194;BME280;44967;48.598;15.650;2022-07-17T03:42:36;99092.31;;;16.69;51.36
59194;BME280;44967;48.598;15.650;2022-07-17T03:45:02;99089.25;;;16.82;50.61
59194;BME280;44967;48.598;15.650;2022-07-17T03:47:27;99090.84;;;16.83;50.81
59194;BME280;44967;48.598;15.650;2022-07-17T03:49:53;99091.72;;;16.91;50.42
59194;BME280;44967;48.598;15.650;2022-07-17T03:52:19;99086.53;;;16.85;50.60
59194;BME280;44967;48.598;15.650;2022-07-17T03:54:44;99091.72;;;16.91;50.48
59194;BME280;44967;48.598;15.650;2022-07-17T03:57:10;99094.88;;;16.93;49.96
59194;BME280;44967;48.598;15.650;2022-07-17T03:59:35;99095.63;;;16.86;50.51
59194;BME280;44967;48.598;15.650;2022-07-17T04:02:01;99093.63;;;16.86;50.89
59194;BME280;44967;48.598;15.650;2022-07-17T04:04:27;99094.50;;;16.94;50.72
59194;BME280;44967;48.598;15.650;2022-07-17T04:06:52;99101.16;;;16.90;50.86
59194;BME280;44967;48.598;15.650;2022-07-17T04:09:18;99097.28;;;16.94;50.37
59194;BME280;44967;48.598;15.650;2022-07-17T04:11:44;99099.44;;;17.16;50.18
59194;BME280;44967;48.598;15.650;2022-07-17T04:14:09;99102.22;;;17.19;50.10
59194;BME280;44967;48.598;15.650;2022-07-17T04:16:35;99101.44;;;17.19;49.88
59194;BME280;44967;48.598;15.650;2022-07-17T04:19:00;99098.63;;;17.11;50.62
59194;BME280;44967;48.598;15.650;2022-07-17T04:21:26;99098.19;;;17.09;51.08
59194;BME280;44967;48.598;15.650;2022-07-17T04:23:51;99102.72;;;16.87;51.31
59194;BME280;44967;48.598;15.650;2022-07-17T04:26:17;99104.94;;;17.12;51.19
59194;BME280;44967;48.598;15.650;2022-07-17T04:28:43;99100.28;;;17.20;51.11
59194;BME280;44967;48.598;15.650;2022-07-17T04:31:08;99102.53;;;17.10;51.83
59194;BME280;44967;48.598;15.650;2022-07-17T04:33:34;99105.47;;;17.32;51.19
59194;BME280;44967;48.598;15.650;2022-07-17T04:36:00;99103.19;;;17.45;50.71
59194;BME280;44967;48.598;15.650;2022-07-17T04:38:25;99107.19;;;17.51;50.20
59194;BME280;44967;48.598;15.650;2022-07-17T04:40:51;99107.56;;;17.50;50.36
59194;BME280;44967;48.598;15.650;2022-07-17T04:43:17;99104.47;;;17.55;50.10
59194;BME280;44967;48.598;15.650;2022-07-17T04:45:42;99105.72;;;17.65;50.19
59194;BME280;44967;48.598;15.650;2022-07-17T04:48:08;99115.25;;;17.75;50.30
59194;BME280;44967;48.598;15.650;2022-07-17T04:50:33;99108.53;;;17.72;50.36
59194;BME280;44967;48.598;15.650;2022-07-17T04:52:59;99118.84;;;17.86;49.28
59194;BME280;44967;48.598;15.650;2022-07-17T04:55:27;99115.72;;;17.88;49.71
59194;BME280;44967;48.598;15.650;2022-07-17T04:57:52;99114.94;;;17.91;49.59
59194;BME280;44967;48.598;15.650;2022-07-17T05:00:19;99112.97;;;17.91;50.27
59194;BME280;44967;48.598;15.650;2022-07-17T05:02:45;99118.88;;;17.93;49.59
59194;BME280;44967;48.598;15.650;2022-07-17T05:05:11;99117.28;;;17.85;49.79
59194;BME280;44967;48.598;15.650;2022-07-17T05:07:36;99113.34;;;17.90;49.54
59194;BME280;44967;48.598;15.650;2022-07-17T05:10:02;99116.56;;;18.03;49.28
59194;BME280;44967;48.598;15.650;2022-07-17T05:12:29;99107.84;;;17.93;49.90
59194;BME280;44967;48.598;15.650;2022-07-17T05:14:55;99108.72;;;18.08;49.99
59194;BME280;44967;48.598;15.650;2022-07-17T05:17:21;99102.03;;;18.20;49.88
59194;BME280;44967;48.598;15.650;2022-07-17T05:19:46;99103.31;;;18.38;49.09
59194;BME280;44967;48.598;15.650;2022-07-17T05:22:12;99102.16;;;18.53;48.55
59194;BME280;44967;48.598;15.650;2022-07-17T05:24:37;99100.97;;;18.58;48.77
59194;BME280;44967;48.598;15.650;2022-07-17T05:27:03;99091.91;;;18.79;47.94
59194;BME280;44967;48.598;15.650;2022-07-17T05:29:29;99103.00;;;18.86;47.94
59194;BME280;44967;48.598;15.650;2022-07-17T05:31:54;99106.19;;;18.92;47.97
59194;BME280;44967;48.598;15.650;2022-07-17T05:34:20;99107.00;;;19.07;48.13
59194;BME280;44967;48.598;15.650;2022-07-17T05:36:46;99100.66;;;19.28;47.69
59194;BME280;44967;48.598;15.650;2022-07-17T05:39:12;99107.78;;;19.40;47.47
59194;BME280;44967;48.598;15.650;2022-07-17T05:41:38;99105.41;;;19.50;47.58
59194;BME280;44967;48.598;15.650;2022-07-17T05:44:03;99106.19;;;19.57;47.41
59194;BME280;44967;48.598;15.650;2022-07-17T05:46:30;99103.78;;;19.67;46.78
59194;BME280;44967;48.598;15.650;2022-07-17T05:48:55;99105.78;;;19.73;47.42
59194;BME280;44967;48.598;15.650;2022-07-17T05:51:21;99103.75;;;19.81;47.00
59194;BME280;44967;48.598;15.650;2022-07-17T05:53:46;99110.47;;;19.91;46.84
59194;BME280;44967;48.598;15.650;2022-07-17T05:56:12;99112.44;;;20.02;46.71
59194;BME280;44967;48.598;15.650;2022-07-17T05:58:38;99104.47;;;20.14;46.69
59194;BME280;44967;48.598;15.650;2022-07-17T06:01:04;99105.59;;;20.32;46.05
59194;BME280;44967;48.598;15.650;2022-07-17T06:03:29;99103.63;;;20.28;46.49
59194;BME280;44967;48.598;15.650;2022-07-17T06:05:55;99112.66;;;20.44;46.25
59194;BME280;44967;48.598;15.650;2022-07-17T06:08:21;99118.16;;;20.51;45.99
59194;BME280;44967;48.598;15.650;2022-07-17T06:10:47;99109.31;;;20.71;45.67
59194;BME280;44967;48.598;15.650;2022-07-17T06:13:13;99120.00;;;20.76;45.52
59194;BME280;44967;48.598;15.650;2022-07-17T06:15:39;99111.22;;;20.92;45.15
59194;BME280;44967;48.598;15.650;2022-07-17T06:18:04;99107.13;;;21.07;45.50
59194;BME280;44967;48.598;15.650;2022-07-17T06:20:31;99106.22;;;21.21;45.08
59194;BME280;44967;48.598;15.650;2022-07-17T06:22:57;99116.47;;;21.28;45.23
59194;BME280;44967;48.598;15.650;2022-07-17T06:25:23;99120.69;;;21.44;44.79
59194;BME280;44967;48.598;15.650;2022-07-17T06:27:48;99115.06;;;21.51;44.54
59194;BME280;44967;48.598;15.650;2022-07-17T06:30:15;99107.03;;;21.60;44.69
59194;BME280;44967;48.598;15.650;2022-07-17T06:32:41;99116.78;;;21.80;43.97
59194;BME280;44967;48.598;15.650;2022-07-17T06:35:08;99114.75;;;21.87;44.27
59194;BME280;44967;48.598;15.650;2022-07-17T06:37:34;99115.41;;;21.99;44.02
59194;BME280;44967;48.598;15.650;2022-07-17T06:39:59;99114.47;;;22.13;43.47
59194;BME280;44967;48.598;15.650;2022-07-17T06:42:25;99114.69;;;22.26;43.16
59194;BME280;44967;48.598;15.650;2022-07-17T06:44:51;99113.72;;;22.40;43.53
59194;BME280;44967;48.598;15.650;2022-07-17T06:47:16;99111.56;;;22.55;42.21
59194;BME280;44967;48.598;15.650;2022-07-17T06:49:42;99117.41;;;22.64;42.20
59194;BME280;44967;48.598;15.650;2022-07-17T06:52:09;99115.34;;;22.68;42.33
59194;BME280;44967;48.598;15.650;2022-07-17T06:54:34;99118.91;;;22.96;41.33
59194;BME280;44967;48.598;15.650;2022-07-17T06:57:00;99119.44;;;23.11;40.89
59194;BME280;44967;48.598;15.650;2022-07-17T06:59:26;99115.63;;;23.29;39.84
59194;BME280;44967;48.598;15.650;2022-07-17T07:01:52;99116.44;;;23.50;40.03
59194;BME280;44967;48.598;15.650;2022-07-17T07:04:17;99109.63;;;23.75;38.83
59194;BME280;44967;48.598;15.650;2022-07-17T07:06:43;99112.63;;;24.08;36.49
59194;BME280;44967;48.598;15.650;2022-07-17T07:09:09;99113.22;;;24.73;36.01
59194;BME280;44967;48.598;15.650;2022-07-17T07:11:37;99107.47;;;25.63;31.77
59194;BME280;44967;48.598;15.650;2022-07-17T07:14:03;99114.56;;;27.05;30.93
59194;BME280;44967;48.598;15.650;2022-07-17T07:16:29;99110.06;;;28.77;27.22
59194;BME280;44967;48.598;15.650;2022-07-17T07:18:54;99111.97;;;30.67;25.57
59194;BME280;44967;48.598;15.650;2022-07-17T07:21:20;99119.75;;;31.79;21.26
59194;BME280;44967;48.598;15.650;2022-07-17T07:23:48;99114.31;;;32.35;18.87
59194;BME280;44967;48.598;15.650;2022-07-17T07:26:14;99115.34;;;32.98;19.48
59194;BME280;44967;48.598;15.650;2022-07-17T07:28:40;99119.34;;;33.95;17.98
59194;BME280;44967;48.598;15.650;2022-07-17T07:31:05;99120.91;;;34.23;17.44
59194;BME280;44967;48.598;15.650;2022-07-17T07:33:31;99112.59;;;34.78;16.95
59194;BME280;44967;48.598;15.650;2022-07-17T07:35:57;99111.84;;;35.32;16.96
59194;BME280;44967;48.598;15.650;2022-07-17T07:38:22;99112.56;;;35.82;17.11
59194;BME280;44967;48.598;15.650;2022-07-17T07:40:49;99118.03;;;36.14;16.20
59194;BME280;44967;48.598;15.650;2022-07-17T07:43:14;99123.63;;;35.74;16.92
59194;BME280;44967;48.598;15.650;2022-07-17T07:45:40;99123.72;;;36.14;16.62
59194;BME280;44967;48.598;15.650;2022-07-17T07:48:05;99124.31;;;35.52;17.08
59194;BME280;44967;48.598;15.650;2022-07-17T07:50:31;99120.91;;;36.60;16.54
59194;BME280;44967;48.598;15.650;2022-07-17T07:52:57;99122.16;;;36.76;16.83
59194;BME280;44967;48.598;15.650;2022-07-17T07:55:22;99116.50;;;36.36;15.79
59194;BME280;44967;48.598;15.650;2022-07-17T07:57:49;99115.97;;;36.37;16.58
59194;BME280;44967;48.598;15.650;2022-07-17T08:00:15;99119.28;;;35.85;17.59
59194;BME280;44967;48.598;15.650;2022-07-17T08:02:41;99119.59;;;36.44;17.12
59194;BME280;44967;48.598;15.650;2022-07-17T08:05:07;99122.69;;;36.52;17.03
59194;BME280;44967;48.598;15.650;2022-07-17T08:07:35;99125.53;;;36.57;16.84
59194;BME280;44967;48.598;15.650;2022-07-17T08:10:01;99124.50;;;36.26;17.09
59194;BME280;44967;48.598;15.650;2022-07-17T08:12:27;99118.81;;;36.55;16.89
59194;BME280;44967;48.598;15.650;2022-07-17T08:14:53;99122.97;;;36.48;16.82
59194;BME280;44967;48.598;15.650;2022-07-17T08:17:19;99126.03;;;36.90;16.38
59194;BME280;44967;48.598;15.650;2022-07-17T08:19:45;99126.56;;;36.71;16.64
59194;BME280;44967;48.598;15.650;2022-07-17T08:22:10;99129.88;;;36.92;16.06
59194;BME280;44967;48.598;15.650;2022-07-17T08:24:37;99131.88;;;35.61;16.99
59194;BME280;44967;48.598;15.650;2022-07-17T08:27:06;99124.56;;;35.54;17.53
59194;BME280;44967;48.598;15.650;2022-07-17T08:29:31;99125.97;;;35.70;17.45
59194;BME280;44967;48.598;15.650;2022-07-17T08:31:57;99128.31;;;35.77;17.12
59194;BME280;44967;48.598;15.650;2022-07-17T08:34:22;99117.25;;;36.14;17.26
59194;BME280;44967;48.598;15.650;2022-07-17T08:36:48;99113.81;;;35.75;17.60
59194;BME280;44967;48.598;15.650;2022-07-17T08:39:13;99120.28;;;35.76;17.70
59194;BME280;44967;48.598;15.650;2022-07-17T08:41:39;99114.16;;;36.17;17.14
59194;BME280;44967;48.598;15.650;2022-07-17T08:44:07;99121.41;;;36.70;16.60
59194;BME280;44967;48.598;15.650;2022-07-17T08:46:35;99122.94;;;36.76;16.68
59194;BME280;44967;48.598;15.650;2022-07-17T08:49:03;99117.28;;;36.71;16.30
59194;BME280;44967;48.598;15.650;2022-07-17T08:51:29;99120.13;;;36.48;16.83
59194;BME280;44967;48.598;15.650;2022-07-17T08:53:56;99129.03;;;35.66;17.30
59194;BME280;44967;48.598;15.650;2022-07-17T08:56:22;99116.41;;;35.73;16.94
59194;BME280;44967;48.598;15.650;2022-07-17T08:58:48;99115.47;;;36.33;16.15
59194;BME280;44967;48.598;15.650;2022-07-17T09:01:14;99113.34;;;36.05;17.06
59194;BME280;44967;48.598;15.650;2022-07-17T09:03:41;99113.41;;;35.33;17.30
59194;BME280;44967;48.598;15.650;2022-07-17T09:06:20;99102.44;;;35.75;17.28
59194;BME280;44967;48.598;15.650;2022-07-17T09:08:46;99102.75;;;35.83;16.79
59194;BME280;44967;48.598;15.650;2022-07-17T09:11:12;99099.75;;;35.43;17.46
59194;BME280;44967;48.598;15.650;2022-07-17T09:13:42;99100.88;;;35.63;17.77
59194;BME280;44967;48.598;15.650;2022-07-17T09:16:11;99099.72;;;36.27;17.61
59194;BME280;44967;48.598;15.650;2022-07-17T09:18:52;99095.56;;;36.11;16.64
59194;BME280;44967;48.598;15.650;2022-07-17T09:21:26;99104.69;;;35.42;17.71
59194;BME280;44967;48.598;15.650;2022-07-17T09:24:03;99102.06;;;34.52;18.29
59194;BME280;44967;48.598;15.650;2022-07-17T09:26:30;99096.97;;;34.99;18.31
59194;BME280;44967;48.598;15.650;2022-07-17T09:28:57;99095.56;;;35.21;18.40
59194;BME280;44967;48.598;15.650;2022-07-17T09:31:28;99092.66;;;35.76;17.63
59194;BME280;44967;48.598;15.650;2022-07-17T09:33:55;99084.16;;;35.99;17.13
59194;BME280;44967;48.598;15.650;2022-07-17T09:36:21;99081.88;;;36.26;17.74
59194;BME280;44967;48.598;15.650;2022-07-17T09:38:51;99088.00;;;35.73;17.88
59194;BME280;44967;48.598;15.650;2022-07-17T09:41:19;99085.66;;;35.66;17.83
59194;BME280;44967;48.598;15.650;2022-07-17T09:43:48;99084.72;;;35.25;17.76
59194;BME280;44967;48.598;15.650;2022-07-17T09:46:29;99087.78;;;35.16;17.77
59194;BME280;44967;48.598;15.650;2022-07-17T09:49:03;99076.13;;;34.59;17.73
59194;BME280;44967;48.598;15.650;2022-07-17T09:51:36;99078.66;;;34.57;18.17
59194;BME280;44967;48.598;15.650;2022-07-17T09:54:07;99071.19;;;34.22;19.11
59194;BME280;44967;48.598;15.650;2022-07-17T09:56:34;99076.22;;;33.85;18.85
59194;BME280;44967;48.598;15.650;2022-07-17T10:01:31;99087.94;;;32.08;20.55
59194;BME280;44967;48.598;15.650;2022-07-17T10:03:57;99086.78;;;31.85;21.59
59194;BME280;44967;48.598;15.650;2022-07-17T10:06:24;99089.97;;;31.38;20.60
59194;BME280;44967;48.598;15.650;2022-07-17T10:08:51;99085.03;;;32.33;20.20
59194;BME280;44967;48.598;15.650;2022-07-17T10:11:19;99078.81;;;32.44;19.96
59194;BME280;44967;48.598;15.650;2022-07-17T10:13:48;99069.25;;;32.41;19.82
59194;BME280;44967;48.598;15.650;2022-07-17T10:16:25;99058.88;;;33.09;18.85
59194;BME280;44967;48.598;15.650;2022-07-17T10:18:51;99056.91;;;33.57;18.71
59194;BME280;44967;48.598;15.650;2022-07-17T10:21:21;99060.50;;;33.37;18.60
59194;BME280;44967;48.598;15.650;2022-07-17T10:24:05;99055.38;;;33.15;19.37
59194;BME280;44967;48.598;15.650;2022-07-17T10:26:33;99053.69;;;33.02;18.59
59194;BME280;44967;48.598;15.650;2022-07-17T10:28:59;99045.53;;;33.10;18.63
59194;BME280;44967;48.598;15.650;2022-07-17T10:31:26;99042.03;;;33.62;18.54
59194;BME280;44967;48.598;15.650;2022-07-17T10:34:13;99046.16;;;33.94;18.62
59194;BME280;44967;48.598;15.650;2022-07-17T10:36:43;99042.84;;;33.69;18.14
59194;BME280;44967;48.598;15.650;2022-07-17T10:39:17;99033.13;;;33.75;18.54
59194;BME280;44967;48.598;15.650;2022-07-17T10:42:03;99042.34;;;33.97;18.63
59194;BME280;44967;48.598;15.650;2022-07-17T10:44:31;99050.84;;;34.23;18.47
59194;BME280;44967;48.598;15.650;2022-07-17T10:46:59;99050.50;;;34.15;18.95
59194;BME280;44967;48.598;15.650;2022-07-17T10:49:26;99044.75;;;34.36;18.29
59194;BME280;44967;48.598;15.650;2022-07-17T10:51:52;99047.31;;;33.49;18.38
59194;BME280;44967;48.598;15.650;2022-07-17T10:54:19;99047.66;;;32.59;18.97
59194;BME280;44967;48.598;15.650;2022-07-17T10:56:44;99042.41;;;33.29;18.69
59194;BME280;44967;48.598;15.650;2022-07-17T10:59:10;99055.09;;;34.07;18.50
59194;BME280;44967;48.598;15.650;2022-07-17T11:01:37;99045.91;;;33.44;18.89
59194;BME280;44967;48.598;15.650;2022-07-17T11:04:02;99045.16;;;33.64;18.34
59194;BME280;44967;48.598;15.650;2022-07-17T11:06:37;99043.31;;;33.61;19.35
59194;BME280;44967;48.598;15.650;2022-07-17T11:09:11;99036.94;;;33.46;18.49
59194;BME280;44967;48.598;15.650;2022-07-17T11:11:43;99045.19;;;33.02;19.18
59194;BME280;44967;48.598;15.650;2022-07-17T11:14:23;99036.38;;;32.79;20.06
59194;BME280;44967;48.598;15.650;2022-07-17T11:17:02;99033.69;;;32.91;19.28
59194;BME280;44967;48.598;15.650;2022-07-17T11:19:30;99035.53;;;32.73;19.13
59194;BME280;44967;48.598;15.650;2022-07-17T11:21:58;99027.28;;;33.11;19.32
59194;BME280;44967;48.598;15.650;2022-07-17T11:24:24;99027.06;;;33.35;19.79
59194;BME280;44967;48.598;15.650;2022-07-17T11:26:51;99018.94;;;33.22;19.60
59194;BME280;44967;48.598;15.650;2022-07-17T11:29:17;99011.66;;;33.63;18.75
59194;BME280;44967;48.598;15.650;2022-07-17T11:31:43;99022.41;;;34.12;19.02
59194;BME280;44967;48.598;15.650;2022-07-17T11:34:10;99010.41;;;33.96;17.79
59194;BME280;44967;48.598;15.650;2022-07-17T11:36:37;99009.16;;;33.71;18.19
59194;BME280;44967;48.598;15.650;2022-07-17T11:39:09;99010.28;;;34.11;17.96
59194;BME280;44967;48.598;15.650;2022-07-17T11:41:42;99006.06;;;34.01;17.33
59194;BME280;44967;48.598;15.650;2022-07-17T11:44:10;99003.78;;;34.43;16.79
59194;BME280;44967;48.598;15.650;2022-07-17T11:46:37;99008.69;;;34.42;17.01
59194;BME280;44967;48.598;15.650;2022-07-17T11:49:04;99010.44;;;34.34;17.77
59194;BME280;44967;48.598;15.650;2022-07-17T11:51:43;99007.03;;;34.24;16.77
59194;BME280;44967;48.598;15.650;2022-07-17T11:54:12;99011.03;;;33.53;17.23
59194;BME280;44967;48.598;15.650;2022-07-17T11:56:39;99014.28;;;33.67;17.36
59194;BME280;44967;48.598;15.650;2022-07-17T11:59:06;99007.81;;;33.66;17.73
59194;BME280;44967;48.598;15.650;2022-07-17T12:01:43;99018.84;;;33.37;18.08
59194;BME280;44967;48.598;15.650;2022-07-17T12:04:12;99007.28;;;33.62;17.80
59194;BME280;44967;48.598;15.650;2022-07-17T12:06:38;99001.59;;;33.88;17.26
59194;BME280;44967;48.598;15.650;2022-07-17T12:09:07;98999.25;;;34.19;17.79
59194;BME280;44967;48.598;15.650;2022-07-17T12:11:33;98994.66;;;33.63;16.93
59194;BME280;44967;48.598;15.650;2022-07-17T12:14:10;98985.47;;;33.47;16.79
59194;BME280;44967;48.598;15.650;2022-07-17T12:16:36;98991.00;;;33.57;16.43
59194;BME280;44967;48.598;15.650;2022-07-17T12:19:14;98997.19;;;33.87;17.10
59194;BME280;44967;48.598;15.650;2022-07-17T12:22:02;99002.38;;;33.95;16.58
59194;BME280;44967;48.598;15.650;2022-07-17T12:24:30;98998.97;;;33.85;16.82
59194;BME280;44967;48.598;15.650;2022-07-17T12:26:58;98989.50;;;33.94;15.90
59194;BME280;44967;48.598;15.650;2022-07-17T12:29:24;98981.56;;;34.30;15.50
59194;BME280;44967;48.598;15.650;2022-07-17T12:32:01;98979.19;;;34.23;15.64
59194;BME280;44967;48.598;15.650;2022-07-17T12:34:27;98988.81;;;34.37;15.56
59194;BME280;44967;48.598;15.650;2022-07-17T12:36:53;98980.81;;;34.35;15.56
59194;BME280;44967;48.598;15.650;2022-07-17T12:39:18;98980.31;;;34.37;15.55
59194;BME280;44967;48.598;15.650;2022-07-17T12:41:44;98987.34;;;34.09;15.66
59194;BME280;44967;48.598;15.650;2022-07-17T12:44:10;98992.19;;;34.03;15.53
59194;BME280;44967;48.598;15.650;2022-07-17T12:46:36;98980.47;;;34.22;16.05
59194;BME280;44967;48.598;15.650;2022-07-17T12:49:01;98973.53;;;33.90;15.85
59194;BME280;44967;48.598;15.650;2022-07-17T12:51:27;98972.91;;;34.07;15.76